createdAt,value
2019-03-03T18:03:45.851Z,4.61
2019-03-03T18:08:44.566Z,5.19
2019-03-03T18:13:53.231Z,5.40
2019-03-03T18:19:01.890Z,5.83
2019-03-03T18:24:09.138Z,6.54
2019-03-03T18:29:17.792Z,6.50
2019-03-03T18:34:26.593Z,6.67
2019-03-03T18:39:35.171Z,7.06
2019-03-03T18:44:43.908Z,8.03
2019-03-03T18:49:52.590Z,8.91
2019-03-03T18:55:01.172Z,9.11
2019-03-03T19:00:09.888Z,8.29
2019-03-03T19:05:18.509Z,8.71
2019-03-03T19:10:27.084Z,8.49
2019-03-03T19:15:34.245Z,8.51
2019-03-03T19:20:42.901Z,9.16
2019-03-03T19:25:52.940Z,9.06
2019-03-03T19:30:51.956Z,9.02
2019-03-03T19:36:00.550Z,10.20
2019-03-03T19:41:09.203Z,10.88
2019-03-03T19:46:17.825Z,10.83
2019-03-03T19:51:26.451Z,10.41
2019-03-03T19:56:35.137Z,10.11
2019-03-03T20:01:43.770Z,9.77
2019-03-03T20:06:51.064Z,9.37
2019-03-03T20:11:59.613Z,9.01
2019-03-03T20:17:08.214Z,9.72
2019-03-03T20:23:27.163Z,9.82
2019-03-03T20:28:36.084Z,9.74
2019-03-03T20:33:45.018Z,9.46
2019-03-03T20:38:53.854Z,9.38
2019-03-03T20:44:02.582Z,11.24
2019-03-03T20:49:11.273Z,12.63
2019-03-03T20:54:20.075Z,11.57
2019-03-03T20:59:28.773Z,11.10
2019-03-03T21:04:37.457Z,12.40
2019-03-03T21:09:46.220Z,11.96
2019-03-03T21:14:54.923Z,11.77
2019-03-03T21:20:03.735Z,11.95
2019-03-03T21:25:12.457Z,12.49
2019-03-03T21:30:21.327Z,12.40
2019-03-03T21:35:30.048Z,12.12
2019-03-03T21:40:38.782Z,11.88
2019-03-03T21:45:47.706Z,12.02
2019-03-03T21:50:56.390Z,11.90
2019-03-03T21:56:05.273Z,11.90
2019-03-03T22:01:13.969Z,11.45
2019-03-03T22:06:22.705Z,11.18
2019-03-03T22:11:31.571Z,11.11
2019-03-03T22:16:40.336Z,10.77
2019-03-03T22:21:48.999Z,10.41
2019-03-03T22:26:57.802Z,10.57
2019-03-03T22:32:06.657Z,9.74
2019-03-03T22:37:15.451Z,10.21
2019-03-03T22:42:24.254Z,10.14
2019-03-03T22:47:33.008Z,10.07
2019-03-03T22:52:41.811Z,9.77
2019-03-03T22:57:49.110Z,10.27
2019-03-03T23:02:56.444Z,9.89
2019-03-03T23:08:07.691Z,9.38
2019-03-03T23:13:04.850Z,9.74
2019-03-03T23:18:13.574Z,9.43
2019-03-03T23:23:22.382Z,9.04
2019-03-03T23:28:29.561Z,9.26
2019-03-03T23:33:36.731Z,9.22
2019-03-03T23:38:43.928Z,8.78
2019-03-03T23:43:52.649Z,8.35
2019-03-03T23:48:59.943Z,8.25
2019-03-03T23:54:07.128Z,8.11
2019-03-03T23:59:15.991Z,8.41
